sensor_id;sensor_type;location;lat;lon;timestamp;temperature;humidity
8988;DHT22;4529;51.360;12.474;2023-02-15T00:03:49;2.40;99.90
8988;DHT22;4529;51.360;12.474;2023-02-15T00:08:53;2.40;99.90
8988;DHT22;4529;51.360;12.474;2023-02-15T00:13:57;2.30;99.90
8988;DHT22;4529;51.360;12.474;2023-02-15T00:19:01;2.30;99.90
8988;DHT22;4529;51.360;12.474;2023-02-15T00:24:06;2.20;99.90
8988;DHT22;4529;51.360;12.474;2023-02-15T00:29:10;2.40;99.90
8988;DHT22;4529;51.360;12.474;2023-02-15T00:34:20;2.50;99.90
8988;DHT22;4529;51.360;12.474;2023-02-15T00:39:22;2.50;99.90
8988;DHT22;4529;51.360;12.474;2023-02-15T00:44:26;2.60;99.90
8988;DHT22;4529;51.360;12.474;2023-02-15T00:49:30;2.60;99.90
8988;DHT22;4529;51.360;12.474;2023-02-15T00:54:35;2.60;99.90
8988;DHT22;4529;51.360;12.474;2023-02-15T00:59:44;2.60;99.90
8988;DHT22;4529;51.360;12.474;2023-02-15T01:04:47;2.70;99.90
8988;DHT22;4529;51.360;12.474;2023-02-15T01:09:52;2.70;99.90
8988;DHT22;4529;51.360;12.474;2023-02-15T01:14:56;2.70;99.90
8988;DHT22;4529;51.360;12.474;2023-02-15T01:20:00;2.70;99.90
8988;DHT22;4529;51.360;12.474;2023-02-15T01:25:05;2.70;99.90
8988;DHT22;4529;51.360;12.474;2023-02-15T01:30:14;2.70;99.90
8988;DHT22;4529;51.360;12.474;2023-02-15T01:35:17;2.70;99.90
8988;DHT22;4529;51.360;12.474;2023-02-15T01:40:21;2.70;99.90
8988;DHT22;4529;51.360;12.474;2023-02-15T01:45:25;2.60;99.90
8988;DHT22;4529;51.360;12.474;2023-02-15T01:50:34;2.60;99.90
8988;DHT22;4529;51.360;12.474;2023-02-15T01:55:57;2.60;99.90
8988;DHT22;4529;51.360;12.474;2023-02-15T02:00:58;2.50;99.90
8988;DHT22;4529;51.360;12.474;2023-02-15T02:06:02;2.40;99.90
8988;DHT22;4529;51.360;12.474;2023-02-15T02:11:11;2.40;99.90
8988;DHT22;4529;51.360;12.474;2023-02-15T02:16:27;2.40;99.90
8988;DHT22;4529;51.360;12.474;2023-02-15T02:21:56;2.10;99.90
8988;DHT22;4529;51.360;12.474;2023-02-15T02:27:37;2.10;99.90
8988;DHT22;4529;51.360;12.474;2023-02-15T02:43:59;2.10;99.90
8988;DHT22;4529;51.360;12.474;2023-02-15T02:48:58;2.00;99.90
8988;DHT22;4529;51.360;12.474;2023-02-15T02:54:03;2.00;99.90
8988;DHT22;4529;51.360;12.474;2023-02-15T02:59:21;2.00;99.90
8988;DHT22;4529;51.360;12.474;2023-02-15T03:04:31;2.00;99.90
8988;DHT22;4529;51.360;12.474;2023-02-15T03:09:40;1.90;99.90
8988;DHT22;4529;51.360;12.474;2023-02-15T03:14:44;1.90;99.90
8988;DHT22;4529;51.360;12.474;2023-02-15T03:19:47;1.90;99.90
8988;DHT22;4529;51.360;12.474;2023-02-15T03:24:59;1.80;99.90
8988;DHT22;4529;51.360;12.474;2023-02-15T03:30:00;1.80;99.90
8988;DHT22;4529;51.360;12.474;2023-02-15T03:35:04;1.80;99.90
8988;DHT22;4529;51.360;12.474;2023-02-15T03:40:16;1.80;99.90
8988;DHT22;4529;51.360;12.474;2023-02-15T03:45:17;1.80;99.90
8988;DHT22;4529;51.360;12.474;2023-02-15T03:50:22;1.80;99.90
8988;DHT22;4529;51.360;12.474;2023-02-15T03:55:25;1.80;99.90
8988;DHT22;4529;51.360;12.474;2023-02-15T04:00:29;1.80;99.90
8988;DHT22;4529;51.360;12.474;2023-02-15T04:05:33;1.80;99.90
8988;DHT22;4529;51.360;12.474;2023-02-15T04:10:37;1.90;99.90
8988;DHT22;4529;51.360;12.474;2023-02-15T04:15:41;1.90;99.90
8988;DHT22;4529;51.360;12.474;2023-02-15T04:20:45;1.90;99.90
8988;DHT22;4529;51.360;12.474;2023-02-15T04:25:48;1.90;99.90
8988;DHT22;4529;51.360;12.474;2023-02-15T04:30:52;1.90;99.90
8988;DHT22;4529;51.360;12.474;2023-02-15T04:35:55;1.90;99.90
8988;DHT22;4529;51.360;12.474;2023-02-15T04:40:59;1.90;99.90
8988;DHT22;4529;51.360;12.474;2023-02-15T04:46:02;1.80;99.90
8988;DHT22;4529;51.360;12.474;2023-02-15T04:51:06;1.90;99.90
8988;DHT22;4529;51.360;12.474;2023-02-15T04:56:10;1.80;99.90
8988;DHT22;4529;51.360;12.474;2023-02-15T05:01:14;1.80;99.90
8988;DHT22;4529;51.360;12.474;2023-02-15T05:06:18;1.80;99.90
8988;DHT22;4529;51.360;12.474;2023-02-15T05:11:22;1.80;99.90
8988;DHT22;4529;51.360;12.474;2023-02-15T05:16:25;1.90;99.90
8988;DHT22;4529;51.360;12.474;2023-02-15T05:21:29;1.90;99.90
8988;DHT22;4529;51.360;12.474;2023-02-15T05:26:32;1.90;99.90
8988;DHT22;4529;51.360;12.474;2023-02-15T05:31:35;1.90;99.90
8988;DHT22;4529;51.360;12.474;2023-02-15T05:36:39;1.80;99.90
8988;DHT22;4529;51.360;12.474;2023-02-15T05:41:44;1.80;99.90
8988;DHT22;4529;51.360;12.474;2023-02-15T05:46:47;1.80;99.90
8988;DHT22;4529;51.360;12.474;2023-02-15T05:51:50;1.80;99.90
8988;DHT22;4529;51.360;12.474;2023-02-15T05:56:54;1.70;99.90
8988;DHT22;4529;51.360;12.474;2023-02-15T06:01:57;1.70;99.90
8988;DHT22;4529;51.360;12.474;2023-02-15T06:07:02;1.70;99.90
8988;DHT22;4529;51.360;12.474;2023-02-15T06:12:06;1.70;99.90
8988;DHT22;4529;51.360;12.474;2023-02-15T06:17:09;1.70;99.90
8988;DHT22;4529;51.360;12.474;2023-02-15T06:22:13;1.70;99.90
8988;DHT22;4529;51.360;12.474;2023-02-15T06:27:29;1.80;99.90
8988;DHT22;4529;51.360;12.474;2023-02-15T06:32:33;1.80;99.90
8988;DHT22;4529;51.360;12.474;2023-02-15T06:37:36;1.80;99.90
8988;DHT22;4529;51.360;12.474;2023-02-15T06:42:39;1.90;99.90
8988;DHT22;4529;51.360;12.474;2023-02-15T06:47:44;1.90;99.90
8988;DHT22;4529;51.360;12.474;2023-02-15T06:52:47;1.90;99.90
8988;DHT22;4529;51.360;12.474;2023-02-15T06:57:56;2.00;99.90
8988;DHT22;4529;51.360;12.474;2023-02-15T07:02:59;2.00;99.90
8988;DHT22;4529;51.360;12.474;2023-02-15T07:08:02;2.10;99.90
8988;DHT22;4529;51.360;12.474;2023-02-15T07:13:06;2.20;99.90
8988;DHT22;4529;51.360;12.474;2023-02-15T07:18:10;2.30;99.90
8988;DHT22;4529;51.360;12.474;2023-02-15T07:23:14;2.40;99.90
8988;DHT22;4529;51.360;12.474;2023-02-15T07:28:18;2.40;99.90
8988;DHT22;4529;51.360;12.474;2023-02-15T07:33:21;2.60;99.90
8988;DHT22;4529;51.360;12.474;2023-02-15T07:38:25;2.70;99.90
8988;DHT22;4529;51.360;12.474;2023-02-15T07:43:28;2.80;99.90
8988;DHT22;4529;51.360;12.474;2023-02-15T07:48:31;3.00;99.90
8988;DHT22;4529;51.360;12.474;2023-02-15T07:53:35;2.70;99.90
8988;DHT22;4529;51.360;12.474;2023-02-15T07:58:42;2.70;99.90
8988;DHT22;4529;51.360;12.474;2023-02-15T08:03:48;2.80;99.90
8988;DHT22;4529;51.360;12.474;2023-02-15T08:08:48;3.10;99.90
8988;DHT22;4529;51.360;12.474;2023-02-15T08:19:08;3.60;99.90
8988;DHT22;4529;51.360;12.474;2023-02-15T08:24:11;4.10;99.90
8988;DHT22;4529;51.360;12.474;2023-02-15T08:29:15;4.50;99.90
8988;DHT22;4529;51.360;12.474;2023-02-15T08:34:18;4.70;99.90
8988;DHT22;4529;51.360;12.474;2023-02-15T08:39:21;5.30;99.90
8988;DHT22;4529;51.360;12.474;2023-02-15T08:44:26;5.40;99.90
8988;DHT22;4529;51.360;12.474;2023-02-15T08:49:30;5.60;99.90
8988;DHT22;4529;51.360;12.474;2023-02-15T08:54:34;5.70;99.90
8988;DHT22;4529;51.360;12.474;2023-02-15T08:59:38;5.70;99.90
8988;DHT22;4529;51.360;12.474;2023-02-15T09:04:43;5.90;99.90
8988;DHT22;4529;51.360;12.474;2023-02-15T09:09:47;6.20;99.90
8988;DHT22;4529;51.360;12.474;2023-02-15T09:14:51;6.30;99.90
8988;DHT22;4529;51.360;12.474;2023-02-15T09:19:54;6.30;99.90
8988;DHT22;4529;51.360;12.474;2023-02-15T09:24:58;6.50;99.90
8988;DHT22;4529;51.360;12.474;2023-02-15T09:30:02;6.60;99.90
8988;DHT22;4529;51.360;12.474;2023-02-15T09:35:05;6.70;99.90
8988;DHT22;4529;51.360;12.474;2023-02-15T09:40:10;6.90;99.90
8988;DHT22;4529;51.360;12.474;2023-02-15T09:45:23;6.90;99.90
8988;DHT22;4529;51.360;12.474;2023-02-15T09:51:08;7.00;99.90
8988;DHT22;4529;51.360;12.474;2023-02-15T10:07:00;7.60;99.90
8988;DHT22;4529;51.360;12.474;2023-02-15T10:12:19;7.60;99.90
8988;DHT22;4529;51.360;12.474;2023-02-15T10:28:05;8.00;99.90
8988;DHT22;4529;51.360;12.474;2023-02-15T10:38:58;8.30;99.90
8988;DHT22;4529;51.360;12.474;2023-02-15T10:44:13;8.50;99.90
8988;DHT22;4529;51.360;12.474;2023-02-15T10:49:36;8.60;99.90
8988;DHT22;4529;51.360;12.474;2023-02-15T10:54:48;8.70;99.90
8988;DHT22;4529;51.360;12.474;2023-02-15T11:05:42;8.90;99.90
8988;DHT22;4529;51.360;12.474;2023-02-15T11:10:51;9.00;99.90
8988;DHT22;4529;51.360;12.474;2023-02-15T11:16:07;9.20;99.90
8988;DHT22;4529;51.360;12.474;2023-02-15T11:21:28;9.40;99.90
8988;DHT22;4529;51.360;12.474;2023-02-15T11:26:50;9.50;99.90
8988;DHT22;4529;51.360;12.474;2023-02-15T11:37:08;9.80;99.90
8988;DHT22;4529;51.360;12.474;2023-02-15T11:42:13;10.00;99.90
8988;DHT22;4529;51.360;12.474;2023-02-15T11:47:15;10.00;99.90
8988;DHT22;4529;51.360;12.474;2023-02-15T11:52:19;10.00;99.90
8988;DHT22;4529;51.360;12.474;2023-02-15T11:57:37;10.10;99.90
8988;DHT22;4529;51.360;12.474;2023-02-15T12:02:37;10.10;99.90
8988;DHT22;4529;51.360;12.474;2023-02-15T12:07:45;10.10;99.90
8988;DHT22;4529;51.360;12.474;2023-02-15T12:12:47;10.30;99.90
8988;DHT22;4529;51.360;12.474;2023-02-15T12:17:51;10.40;99.90
8988;DHT22;4529;51.360;12.474;2023-02-15T12:22:54;10.40;99.90
8988;DHT22;4529;51.360;12.474;2023-02-15T12:27:57;10.50;99.90
8988;DHT22;4529;51.360;12.474;2023-02-15T12:33:36;10.60;99.90
8988;DHT22;4529;51.360;12.474;2023-02-15T12:38:38;10.70;99.90
8988;DHT22;4529;51.360;12.474;2023-02-15T12:43:42;10.70;99.90
8988;DHT22;4529;51.360;12.474;2023-02-15T12:48:45;10.70;99.90
8988;DHT22;4529;51.360;12.474;2023-02-15T12:53:49;10.90;99.90
8988;DHT22;4529;51.360;12.474;2023-02-15T12:59:04;11.00;99.90
8988;DHT22;4529;51.360;12.474;2023-02-15T13:04:14;11.10;99.90
8988;DHT22;4529;51.360;12.474;2023-02-15T13:14:29;11.20;99.90
8988;DHT22;4529;51.360;12.474;2023-02-15T13:19:46;11.30;99.90
8988;DHT22;4529;51.360;12.474;2023-02-15T13:24:55;11.30;99.90
8988;DHT22;4529;51.360;12.474;2023-02-15T13:30:03;11.30;99.90
8988;DHT22;4529;51.360;12.474;2023-02-15T13:35:05;11.40;99.90
8988;DHT22;4529;51.360;12.474;2023-02-15T13:40:18;11.60;99.90
8988;DHT22;4529;51.360;12.474;2023-02-15T13:51:07;11.80;99.90
8988;DHT22;4529;51.360;12.474;2023-02-15T14:01:34;11.90;99.90
8988;DHT22;4529;51.360;12.474;2023-02-15T14:12:23;12.00;99.90
8988;DHT22;4529;51.360;12.474;2023-02-15T14:23:00;12.00;99.90
8988;DHT22;4529;51.360;12.474;2023-02-15T14:28:03;12.00;99.90
8988;DHT22;4529;51.360;12.474;2023-02-15T14:33:32;12.10;99.90
8988;DHT22;4529;51.360;12.474;2023-02-15T14:38:59;12.10;99.90
8988;DHT22;4529;51.360;12.474;2023-02-15T14:44:08;12.10;99.90
8988;DHT22;4529;51.360;12.474;2023-02-15T14:49:21;12.00;99.90
8988;DHT22;4529;51.360;12.474;2023-02-15T14:59:59;12.10;99.90
8988;DHT22;4529;51.360;12.474;2023-02-15T15:05:16;12.20;99.90
8988;DHT22;4529;51.360;12.474;2023-02-15T15:20:49;12.30;99.90
8988;DHT22;4529;51.360;12.474;2023-02-15T15:25:55;12.40;99.90
8988;DHT22;4529;51.360;12.474;2023-02-15T15:30:56;12.40;99.90
8988;DHT22;4529;51.360;12.474;2023-02-15T15:36:22;12.40;99.90
8988;DHT22;4529;51.360;12.474;2023-02-15T15:47:39;12.00;99.90
8988;DHT22;4529;51.360;12.474;2023-02-15T15:52:38;12.00;99.90
8988;DHT22;4529;51.360;12.474;2023-02-15T15:57:42;11.90;99.90
8988;DHT22;4529;51.360;12.474;2023-02-15T16:02:51;11.80;99.90
8988;DHT22;4529;51.360;12.474;2023-02-15T16:07:54;11.70;99.90
8988;DHT22;4529;51.360;12.474;2023-02-15T16:12:57;11.60;99.90
8988;DHT22;4529;51.360;12.474;2023-02-15T16:18:01;11.40;99.90
8988;DHT22;4529;51.360;12.474;2023-02-15T16:23:16;11.30;99.90
8988;DHT22;4529;51.360;12.474;2023-02-15T16:28:17;11.20;99.90
8988;DHT22;4529;51.360;12.474;2023-02-15T16:33:21;10.90;99.90
8988;DHT22;4529;51.360;12.474;2023-02-15T16:43:49;10.80;99.90
8988;DHT22;4529;51.360;12.474;2023-02-15T16:48:52;10.60;99.90
8988;DHT22;4529;51.360;12.474;2023-02-15T16:53:56;10.30;99.90
8988;DHT22;4529;51.360;12.474;2023-02-15T16:59:00;9.70;99.90
8988;DHT22;4529;51.360;12.474;2023-02-15T17:09:25;9.40;99.90
8988;DHT22;4529;51.360;12.474;2023-02-15T17:14:37;9.20;99.90
8988;DHT22;4529;51.360;12.474;2023-02-15T17:19:49;9.20;99.90
8988;DHT22;4529;51.360;12.474;2023-02-15T17:24:57;9.10;99.90
8988;DHT22;4529;51.360;12.474;2023-02-15T17:30:03;8.90;99.90
8988;DHT22;4529;51.360;12.474;2023-02-15T17:35:22;8.90;99.90
8988;DHT22;4529;51.360;12.474;2023-02-15T17:40:26;8.80;99.90
8988;DHT22;4529;51.360;12.474;2023-02-15T17:45:48;8.70;99.90
8988;DHT22;4529;51.360;12.474;2023-02-15T17:50:44;8.60;99.90
8988;DHT22;4529;51.360;12.474;2023-02-15T17:55:47;8.50;99.90
8988;DHT22;4529;51.360;12.474;2023-02-15T18:01:00;8.50;99.90
8988;DHT22;4529;51.360;12.474;2023-02-15T18:06:04;8.30;99.90
8988;DHT22;4529;51.360;12.474;2023-02-15T18:11:08;8.10;99.90
8988;DHT22;4529;51.360;12.474;2023-02-15T18:16:18;8.10;99.90
8988;DHT22;4529;51.360;12.474;2023-02-15T18:21:20;8.00;99.90
8988;DHT22;4529;51.360;12.474;2023-02-15T18:26:24;8.00;99.90
8988;DHT22;4529;51.360;12.474;2023-02-15T18:31:27;8.00;99.90
8988;DHT22;4529;51.360;12.474;2023-02-15T18:36:32;8.00;99.90
8988;DHT22;4529;51.360;12.474;2023-02-15T18:41:34;8.10;99.90
8988;DHT22;4529;51.360;12.474;2023-02-15T18:46:38;8.20;99.90
8988;DHT22;4529;51.360;12.474;2023-02-15T18:51:42;8.40;99.90
8988;DHT22;4529;51.360;12.474;2023-02-15T18:56:53;8.40;99.90
8988;DHT22;4529;51.360;12.474;2023-02-15T19:01:55;8.30;99.90
8988;DHT22;4529;51.360;12.474;2023-02-15T19:06:59;8.30;99.90
8988;DHT22;4529;51.360;12.474;2023-02-15T19:12:03;8.40;99.90
8988;DHT22;4529;51.360;12.474;2023-02-15T19:17:13;8.30;99.90
8988;DHT22;4529;51.360;12.474;2023-02-15T19:22:21;8.20;99.90
8988;DHT22;4529;51.360;12.474;2023-02-15T19:32:32;7.80;99.90
8988;DHT22;4529;51.360;12.474;2023-02-15T19:37:38;7.70;99.90
8988;DHT22;4529;51.360;12.474;2023-02-15T19:42:41;7.70;99.90
8988;DHT22;4529;51.360;12.474;2023-02-15T19:47:45;7.60;99.90
8988;DHT22;4529;51.360;12.474;2023-02-15T19:52:49;7.50;99.90
8988;DHT22;4529;51.360;12.474;2023-02-15T19:57:53;7.50;99.90
8988;DHT22;4529;51.360;12.474;2023-02-15T20:03:01;7.40;99.90
8988;DHT22;4529;51.360;12.474;2023-02-15T20:08:05;7.40;99.90
8988;DHT22;4529;51.360;12.474;2023-02-15T20:13:11;7.40;99.90
8988;DHT22;4529;51.360;12.474;2023-02-15T20:18:12;7.40;99.90
8988;DHT22;4529;51.360;12.474;2023-02-15T20:23:28;7.30;99.90
8988;DHT22;4529;51.360;12.474;2023-02-15T20:28:31;7.30;99.90
8988;DHT22;4529;51.360;12.474;2023-02-15T20:33:45;7.20;99.90
8988;DHT22;4529;51.360;12.474;2023-02-15T20:38:48;7.30;99.90
8988;DHT22;4529;51.360;12.474;2023-02-15T20:43:52;7.30;99.90
8988;DHT22;4529;51.360;12.474;2023-02-15T20:48:55;7.30;99.90
8988;DHT22;4529;51.360;12.474;2023-02-15T20:54:00;7.20;99.90
8988;DHT22;4529;51.360;12.474;2023-02-15T20:59:05;7.20;99.90
8988;DHT22;4529;51.360;12.474;2023-02-15T21:04:18;7.10;99.90
8988;DHT22;4529;51.360;12.474;2023-02-15T21:09:20;7.10;99.90
8988;DHT22;4529;51.360;12.474;2023-02-15T21:14:24;7.00;99.90
8988;DHT22;4529;51.360;12.474;2023-02-15T21:19:28;6.90;99.90
8988;DHT22;4529;51.360;12.474;2023-02-15T21:24:32;6.70;99.90
8988;DHT22;4529;51.360;12.474;2023-02-15T21:29:36;6.70;99.90
8988;DHT22;4529;51.360;12.474;2023-02-15T21:34:40;6.70;99.90
8988;DHT22;4529;51.360;12.474;2023-02-15T21:39:43;6.50;99.90
8988;DHT22;4529;51.360;12.474;2023-02-15T21:44:48;6.40;99.90
8988;DHT22;4529;51.360;12.474;2023-02-15T21:49:51;6.40;99.90
8988;DHT22;4529;51.360;12.474;2023-02-15T21:54:55;6.30;99.90
8988;DHT22;4529;51.360;12.474;2023-02-15T22:00:01;6.30;99.90
8988;DHT22;4529;51.360;12.474;2023-02-15T22:05:05;6.30;99.90
8988;DHT22;4529;51.360;12.474;2023-02-15T22:10:07;6.10;99.90
8988;DHT22;4529;51.360;12.474;2023-02-15T22:15:20;6.10;99.90
8988;DHT22;4529;51.360;12.474;2023-02-15T22:20:21;6.10;99.90
8988;DHT22;4529;51.360;12.474;2023-02-15T22:25:24;6.10;99.90
8988;DHT22;4529;51.360;12.474;2023-02-15T22:30:28;6.00;99.90
8988;DHT22;4529;51.360;12.474;2023-02-15T22:35:32;5.90;99.90
8988;DHT22;4529;51.360;12.474;2023-02-15T22:40:35;5.90;99.90
8988;DHT22;4529;51.360;12.474;2023-02-15T22:45:39;5.70;99.90
8988;DHT22;4529;51.360;12.474;2023-02-15T22:50:42;5.70;99.90
8988;DHT22;4529;51.360;12.474;2023-02-15T22:55:46;5.60;99.90
8988;DHT22;4529;51.360;12.474;2023-02-15T23:00:52;5.40;99.90
8988;DHT22;4529;51.360;12.474;2023-02-15T23:05:56;5.30;99.90
8988;DHT22;4529;51.360;12.474;2023-02-15T23:10:59;5.20;99.90
8988;DHT22;4529;51.360;12.474;2023-02-15T23:16:04;5.10;99.90
8988;DHT22;4529;51.360;12.474;2023-02-15T23:21:29;4.90;99.90
8988;DHT22;4529;51.360;12.474;2023-02-15T23:26:31;4.90;99.90
8988;DHT22;4529;51.360;12.474;2023-02-15T23:31:38;5.00;99.90
8988;DHT22;4529;51.360;12.474;2023-02-15T23:36:41;5.00;99.90
8988;DHT22;4529;51.360;12.474;2023-02-15T23:41:45;5.10;99.90
8988;DHT22;4529;51.360;12.474;2023-02-15T23:46:48;5.20;99.90
8988;DHT22;4529;51.360;12.474;2023-02-15T23:51:52;5.20;99.90
8988;DHT22;4529;51.360;12.474;2023-02-15T23:56:57;5.20;99.90
